Impacts METAR Board
IDs:

KPDX - Portland Intl Arpt, OR, US

Updated at: 1300 UTC 23 Jun 2018
Potential Impact None Slight Moderate High
Time 23/01Z 23/02Z 23/03Z 23/04Z 23/05Z 23/06Z 23/07Z 23/08Z 23/09Z 23/10Z 23/11Z 23/12Z 23/13Z
Temp75 75 72 69 66 64 62 61 60 60 60 59 60
Dewpt51 52 53 53 53 53 53 53 53 53 53 53 54
Altim30.11 30.10 30.11 30.11 30.13 30.14 30.14 30.14 30.14 30.16 30.16 30.15 30.15
VIS10 10 10 10 10 10 10 10 10 10 10 10 10
CIG-- -- 55 60 50 50 55 -- -- 37 36 37 43
CoverFEWSCTBKNOVCOVCOVCBKNSCTSCTBKNBKNBKNOVC
FltCatVFRVFRVFRVFRVFRVFRVFRVFRVFRVFRVFRVFRVFR
WX--------------------------
WDir2903403503503503503403203500000
WSpd5 5 7 7 9 7 7 6 3 0 0 0 0
WGst-- -- -- -- -- -- -- -- -- -- -- -- --
Raw hourly METARs
KPDX 230053Z 29005KT 10SM FEW050 24/11 A3011 RMK AO2 SLP195 T02390106
KPDX 230153Z 34005KT 10SM FEW050 SCT070 24/11 A3010 RMK AO2 SLP192 T02390111
KPDX 230253Z 35007KT 10SM BKN055 BKN070 22/12 A3011 RMK AO2 SLP194 T02220117 55008
KPDX 230353Z 35007KT 10SM BKN060 OVC075 21/12 A3011 RMK AO2 SLP194 T02060117
KPDX 230453Z 35009KT 10SM BKN050 OVC060 19/12 A3013 RMK AO2 SLP202 T01890117
KPDX 230553Z 35007KT 10SM BKN050 OVC055 18/12 A3014 RMK AO2 RAB01E40 SLP205 P0000 60000 T01780117 10244 20178 53011
KPDX 230653Z 34007KT 10SM BKN055 BKN060 17/12 A3014 RMK AO2 RAB0554E04 SLP206 P0000 T01670117
KPDX 230753Z 32006KT 10SM SCT065 16/12 A3014 RMK AO2 SLP207 T01610117 402440156
KPDX 230853Z 35003KT 10SM SCT060 16/12 A3014 RMK AO2 SLP206 60000 T01560117 51001
KPDX 230953Z 00000KT 10SM BKN037 BKN060 16/12 A3016 RMK AO2 SLP210 T01560117
KPDX 231053Z 00000KT 10SM BKN036 16/12 A3016 RMK AO2 SLP210 T01560117
KPDX 231153Z 00000KT 10SM BKN037 15/12 A3015 RMK AO2 SLP210 60000 T01500117 10178 20150 50003
KPDX 231253Z 00000KT 10SM SCT020 BKN043 OVC050 16/12 A3015 RMK AO2 SLP208 T01560122



Page loaded:  13:54 UTC  |   06:54 AM Pacific  |   07:54 AM Mountain  |   08:54 AM Central  |   09:54 AM Eastern

 

ADVISORIES

FORECASTS

FORECASTS

OBSERVATIONS

USER TOOLS

ABOUT US